Narym, Russia
Current Conditions -  °F | °C
As of 1:30 PM on Thursday 27 Nov 2014 (Local Time) from UNTT Reporting Station
Snow Showers Snow Showers  
Wind Chill:   Ceiling: 1600
Heat Index: 14°   Visibility: 6mi
Dew Point: 10°   Wind: 7mph
Humidity: 86%   Direction: 280°W
Pressure: 29.41"   Gusts: NA
Location:  58.92°N, 81.58°E
Report Text: UNTT 270630Z 28003MPS M2800SW -SHSN SCT006 BKN016CB OVC066M10/M12 Q0996 NOSIG RMK QFE732 21450340
Loading
Personal Weather Stations






























Interactive Weather Map New forecast layout! Learn more

10-Day Weather Forecast

Advertisements
Track Severe Weather on mobile